This is the latest recevied weather packets stored in our database for station/object W3TMB. If no packets are shown the sender has not sent any weather packets the latest 10 day(s).
| Time | Temp. | Humidity | Pressure | Rain* | Wind** | Luminosity | Snow |
|---|---|---|---|---|---|---|---|
| 1777733297 | 10.56° C | 59% | 1011.9 hPa | 0 mm | - | 789 W/m² | - |
| 1777732995 | 10° C | 60% | 1011.9 hPa | 0 mm | - | 503 W/m² | - |
| 1777732690 | 10° C | 62% | 1011.9 hPa | 0 mm | - | 494 W/m² | - |
| 1777732388 | 10.56° C | 62% | 1011.9 hPa | 0 mm | - | 219 W/m² | - |
| 1777732086 | 10° C | 65% | 1012.1 hPa | 0 mm | - | 243 W/m² | - |
| 1777731782 | 10.56° C | 63% | 1012.2 hPa | 0 mm | - | 473 W/m² | - |
| 1777731479 | 10.56° C | 65% | 1012.3 hPa | 0 mm | - | 243 W/m² | - |
| 1777731177 | 11.67° C | 62% | 1012.3 hPa | 0 mm | - | 270 W/m² | - |
| 1777730875 | 11.11° C | 63% | 1012.2 hPa | 0 mm | - | 714 W/m² | - |
| 1777730572 | 10° C | 67% | 1012 hPa | 0 mm | - | 488 W/m² | - |
| 1777730268 | 10° C | 69% | 1012.2 hPa | 0 mm | - | 560 W/m² | - |
| 1777729965 | 10° C | 65% | 1012.3 hPa | 0 mm | - | 655 W/m² | - |
| 1777729661 | 9.44° C | 71% | 1012.5 hPa | 0 mm | - | 249 W/m² | - |
| 1777729358 | 10° C | 68% | 1012.6 hPa | 0 mm | - | 524 W/m² | - |
| 1777729055 | 9.44° C | 70% | 1012.4 hPa | 0 mm | - | 162 W/m² | - |
| 1777728751 | 8.89° C | 73% | 1012.6 hPa | 0 mm | - | 509 W/m² | - |
| 1777728448 | 8.89° C | 71% | 1012.9 hPa | 0 mm | - | 377 W/m² | - |
| 1777728145 | 8.89° C | 73% | 1012.7 hPa | 0 mm | - | 436 W/m² | - |
| 1777727842 | 8.89° C | 74% | 1013 hPa | 0 mm | - | 438 W/m² | - |
| 1777727540 | 8.89° C | 72% | 1012.8 hPa | 0 mm | - | 337 W/m² | - |
| 1777727236 | 8.33° C | 73% | 1012.9 hPa | 0 mm | - | 370 W/m² | - |
| 1777726934 | 8.33° C | 75% | 1013 hPa | 0 mm | - | 373 W/m² | - |
| 1777726630 | 7.78° C | 76% | 1013 hPa | 0 mm | - | 331 W/m² | - |
| 1777726328 | 7.78° C | 75% | 1013.1 hPa | 0 mm | - | 356 W/m² | - |
| 1777726025 | 7.22° C | 78% | 1013 hPa | 0 mm | - | 341 W/m² | - |
* Rain latest hour (hover to see other rain measurements)
** Current wind speed in m/s (hover to see current wind gust speed)